createdAt,value
2017-09-10T00:00:05.180Z,988.08
2017-09-10T00:01:05.198Z,988.08
2017-09-10T00:02:05.222Z,988.10
2017-09-10T00:03:05.246Z,988.11
2017-09-10T00:04:05.265Z,988.09
2017-09-10T00:05:05.285Z,988.10
2017-09-10T00:06:05.311Z,988.08
2017-09-10T00:07:05.329Z,988.09
2017-09-10T00:08:05.349Z,988.07
2017-09-10T00:09:05.369Z,988.12
2017-09-10T00:10:05.394Z,988.10
2017-09-10T00:11:05.410Z,988.14
2017-09-10T00:12:05.436Z,988.15
2017-09-10T00:13:05.456Z,988.19
2017-09-10T00:14:05.472Z,988.16
2017-09-10T00:15:05.589Z,988.18
2017-09-10T00:16:05.517Z,988.17
2017-09-10T00:17:05.536Z,988.22
2017-09-10T00:18:05.560Z,988.25
2017-09-10T00:19:05.597Z,988.24
2017-09-10T00:20:05.604Z,988.26
2017-09-10T00:21:05.630Z,988.29
2017-09-10T00:22:05.642Z,988.30
2017-09-10T00:23:05.664Z,988.29
2017-09-10T00:24:05.704Z,988.31
2017-09-10T00:25:05.734Z,988.33
2017-09-10T00:26:05.729Z,988.34
2017-09-10T00:27:05.753Z,988.35
2017-09-10T00:28:05.773Z,988.35
2017-09-10T00:29:05.790Z,988.34
2017-09-10T00:30:05.817Z,988.34
2017-09-10T00:31:05.830Z,988.36
2017-09-10T00:32:05.853Z,988.37
2017-09-10T00:33:05.876Z,988.37
2017-09-10T00:34:05.896Z,988.39
2017-09-10T00:35:05.922Z,988.39
2017-09-10T00:36:05.984Z,988.41
2017-09-10T00:37:05.977Z,988.41
2017-09-10T00:38:05.995Z,988.40
2017-09-10T00:39:06.001Z,988.39
2017-09-10T00:40:06.023Z,988.40
2017-09-10T00:41:06.043Z,988.43
2017-09-10T00:42:06.062Z,988.46
2017-09-10T00:43:06.083Z,988.50
2017-09-10T00:44:06.132Z,988.49
2017-09-10T00:45:06.128Z,988.48
2017-09-10T00:46:06.160Z,988.45
2017-09-10T00:47:06.183Z,988.43
2017-09-10T00:48:06.207Z,988.41
2017-09-10T00:49:06.210Z,988.48
2017-09-10T00:50:06.238Z,988.46
2017-09-10T00:51:06.259Z,988.44
2017-09-10T00:52:06.287Z,988.50
2017-09-10T00:53:06.295Z,988.50
2017-09-10T00:54:06.326Z,988.51
2017-09-10T00:55:06.340Z,988.50
2017-09-10T00:56:06.382Z,988.51
2017-09-10T00:57:06.385Z,988.48
2017-09-10T00:58:06.425Z,988.53
2017-09-10T00:59:06.424Z,988.51
2017-09-10T01:00:06.453Z,988.54
2017-09-10T01:01:06.463Z,988.53
2017-09-10T01:02:06.499Z,988.55
2017-09-10T01:03:06.517Z,988.54
2017-09-10T01:04:06.526Z,988.52
2017-09-10T01:05:06.549Z,988.50
2017-09-10T01:06:06.573Z,988.52
2017-09-10T01:07:06.590Z,988.51
2017-09-10T01:08:06.611Z,988.50
2017-09-10T01:09:06.635Z,988.49
2017-09-10T01:10:06.654Z,988.51
2017-09-10T01:11:06.689Z,988.52
2017-09-10T01:12:06.735Z,988.49
2017-09-10T01:13:06.718Z,988.47
2017-09-10T01:14:06.739Z,988.52
2017-09-10T01:15:06.761Z,988.53
2017-09-10T01:16:06.781Z,988.56
2017-09-10T01:17:06.806Z,988.52
2017-09-10T01:18:06.822Z,988.51
2017-09-10T01:19:06.846Z,988.54
2017-09-10T01:20:06.866Z,988.51
2017-09-10T01:21:06.892Z,988.50
2017-09-10T01:22:06.913Z,988.54
2017-09-10T01:23:06.926Z,988.55
2017-09-10T01:24:06.957Z,988.55
2017-09-10T01:25:06.969Z,988.52
2017-09-10T01:26:06.989Z,988.54
2017-09-10T01:27:07.011Z,988.57
2017-09-10T01:28:07.033Z,988.53
2017-09-10T01:29:07.057Z,988.56
2017-09-10T01:30:07.076Z,988.53
2017-09-10T01:31:07.093Z,988.57
2017-09-10T01:32:07.116Z,988.53
2017-09-10T01:33:07.139Z,988.51
2017-09-10T01:34:07.163Z,988.54
2017-09-10T01:35:07.189Z,988.55
2017-09-10T01:36:07.201Z,988.56
2017-09-10T01:37:07.222Z,988.60
2017-09-10T01:38:07.243Z,988.59
2017-09-10T01:39:07.266Z,988.58
2017-09-10T01:40:07.284Z,988.61
2017-09-10T01:41:07.310Z,988.61
2017-09-10T01:42:07.331Z,988.64
2017-09-10T01:43:07.346Z,988.65
2017-09-10T01:44:07.372Z,988.65
2017-09-10T01:45:07.391Z,988.68
2017-09-10T01:46:07.418Z,988.69
2017-09-10T01:47:07.429Z,988.70
2017-09-10T01:48:07.464Z,988.73
2017-09-10T01:49:07.474Z,988.77
2017-09-10T01:50:07.495Z,988.78
2017-09-10T01:51:07.515Z,988.81
2017-09-10T01:52:07.536Z,988.83
2017-09-10T01:53:07.554Z,988.85
2017-09-10T01:54:07.576Z,988.84
2017-09-10T01:55:07.600Z,988.90
2017-09-10T01:56:07.621Z,988.89
2017-09-10T01:57:07.641Z,988.92
2017-09-10T01:58:07.661Z,988.90
2017-09-10T01:59:07.688Z,988.88
2017-09-10T02:00:07.706Z,988.89
2017-09-10T02:01:07.730Z,988.87
2017-09-10T02:02:07.750Z,988.87
2017-09-10T02:03:07.774Z,988.84
2017-09-10T02:04:07.787Z,988.86
2017-09-10T02:05:07.809Z,988.84
2017-09-10T02:06:07.829Z,988.90
2017-09-10T02:07:07.876Z,988.90
2017-09-10T02:08:07.872Z,988.94
2017-09-10T02:09:07.892Z,988.96
2017-09-10T02:10:07.914Z,989.00
2017-09-10T02:11:07.931Z,988.99
2017-09-10T02:12:07.954Z,988.99
2017-09-10T02:13:07.977Z,989.00
2017-09-10T02:14:07.999Z,988.95
2017-09-10T02:15:08.015Z,988.94
2017-09-10T02:16:08.070Z,988.94
2017-09-10T02:17:08.059Z,988.93
2017-09-10T02:18:08.085Z,988.93
2017-09-10T02:19:08.118Z,988.96
2017-09-10T02:20:08.122Z,988.97
2017-09-10T02:21:08.143Z,988.96
2017-09-10T02:22:08.164Z,988.95
2017-09-10T02:23:08.188Z,988.97
2017-09-10T02:24:08.205Z,988.99
2017-09-10T02:25:08.227Z,988.97
2017-09-10T02:26:08.249Z,989.00
2017-09-10T02:27:08.266Z,988.97
2017-09-10T02:28:08.290Z,988.95
2017-09-10T02:29:08.310Z,988.94
2017-09-10T02:30:08.332Z,988.99
2017-09-10T02:31:08.354Z,988.98
2017-09-10T02:32:08.372Z,988.99
2017-09-10T02:33:08.394Z,989.01
2017-09-10T02:34:08.417Z,989.00
2017-09-10T02:35:08.434Z,989.01
2017-09-10T02:36:08.472Z,989.00
2017-09-10T02:37:08.479Z,989.02
2017-09-10T02:38:08.500Z,989.01
2017-09-10T02:39:08.519Z,988.98
2017-09-10T02:40:08.546Z,988.96
2017-09-10T02:41:08.564Z,988.95
2017-09-10T02:42:08.583Z,988.95
2017-09-10T02:43:08.604Z,988.99
2017-09-10T02:44:08.625Z,988.99
2017-09-10T02:45:08.649Z,988.99
2017-09-10T02:46:08.669Z,989.00
2017-09-10T02:47:08.686Z,989.03
2017-09-10T02:48:08.706Z,989.01
2017-09-10T02:49:08.729Z,989.00
2017-09-10T02:50:08.750Z,989.02
2017-09-10T02:51:08.771Z,989.01
2017-09-10T02:52:08.792Z,989.03
2017-09-10T02:53:08.822Z,989.02
2017-09-10T02:54:08.834Z,989.00
2017-09-10T02:55:08.853Z,989.07
2017-09-10T02:56:08.879Z,989.09
2017-09-10T02:57:08.897Z,989.08
2017-09-10T02:58:08.915Z,989.07
2017-09-10T02:59:08.936Z,989.10
2017-09-10T03:00:08.959Z,989.07
2017-09-10T03:01:08.989Z,989.04
2017-09-10T03:02:09.004Z,989.04
2017-09-10T03:03:09.020Z,989.06
2017-09-10T03:04:09.053Z,989.00
2017-09-10T03:05:09.062Z,989.00
2017-09-10T03:06:09.085Z,989.03
2017-09-10T03:07:09.102Z,989.03
2017-09-10T03:08:09.125Z,989.02
2017-09-10T03:09:09.150Z,989.00
2017-09-10T03:10:09.166Z,989.02
2017-09-10T03:11:09.186Z,989.06
2017-09-10T03:12:09.216Z,989.09
2017-09-10T03:13:09.236Z,989.10
2017-09-10T03:14:09.250Z,989.11
2017-09-10T03:15:09.276Z,989.07
2017-09-10T03:16:09.295Z,989.07
2017-09-10T03:17:09.313Z,989.06
2017-09-10T03:18:09.332Z,989.04
2017-09-10T03:19:09.362Z,989.04
2017-09-10T03:20:09.376Z,989.07
2017-09-10T03:21:09.398Z,989.11
2017-09-10T03:22:09.416Z,989.10
2017-09-10T03:23:09.437Z,989.16
2017-09-10T03:24:09.462Z,989.16
2017-09-10T03:25:09.486Z,989.19
2017-09-10T03:26:09.501Z,989.16
2017-09-10T03:27:09.525Z,989.19
2017-09-10T03:28:09.539Z,989.20
2017-09-10T03:29:09.565Z,989.18
2017-09-10T03:30:09.592Z,989.26
2017-09-10T03:31:09.603Z,989.24
2017-09-10T03:32:09.629Z,989.25
2017-09-10T03:33:09.654Z,989.24
2017-09-10T03:34:09.676Z,989.28
2017-09-10T03:35:09.693Z,989.29
2017-09-10T03:36:09.709Z,989.30
2017-09-10T03:37:09.728Z,989.35
2017-09-10T03:38:09.768Z,989.39
2017-09-10T03:39:09.769Z,989.40
2017-09-10T03:40:09.791Z,989.42
2017-09-10T03:41:09.812Z,989.43
2017-09-10T03:42:09.834Z,989.45
2017-09-10T03:43:09.859Z,989.46
2017-09-10T03:44:09.874Z,989.49
2017-09-10T03:45:09.898Z,989.48
2017-09-10T03:46:09.920Z,989.50
2017-09-10T03:47:09.939Z,989.51
2017-09-10T03:48:09.960Z,989.49
2017-09-10T03:49:09.979Z,989.49
2017-09-10T03:50:10.000Z,989.49
2017-09-10T03:51:10.025Z,989.50
2017-09-10T03:52:10.042Z,989.53
2017-09-10T03:53:10.065Z,989.51
2017-09-10T03:54:10.096Z,989.55
2017-09-10T03:55:10.107Z,989.55
2017-09-10T03:56:10.126Z,989.59
2017-09-10T03:57:10.148Z,989.62
2017-09-10T03:58:10.170Z,989.62
2017-09-10T03:59:10.190Z,989.64
2017-09-10T04:00:10.221Z,989.65
2017-09-10T04:01:10.232Z,989.70
2017-09-10T04:02:10.251Z,989.72
2017-09-10T04:03:10.272Z,989.73
2017-09-10T04:04:10.297Z,989.76
2017-09-10T04:05:10.314Z,989.75
2017-09-10T04:06:10.334Z,989.77
2017-09-10T04:07:10.355Z,989.74
2017-09-10T04:08:10.378Z,989.77
2017-09-10T04:09:10.399Z,989.78
2017-09-10T04:10:10.418Z,989.80
2017-09-10T04:11:10.440Z,989.80
2017-09-10T04:12:10.460Z,989.77
2017-09-10T04:13:10.483Z,989.79
2017-09-10T04:14:10.517Z,989.75
2017-09-10T04:15:10.521Z,989.77
2017-09-10T04:16:10.545Z,989.78
2017-09-10T04:17:10.564Z,989.81
2017-09-10T04:18:10.592Z,989.83
2017-09-10T04:19:10.604Z,989.85
2017-09-10T04:20:10.632Z,989.83
2017-09-10T04:21:10.655Z,989.86
2017-09-10T04:22:10.669Z,989.86
2017-09-10T04:23:10.689Z,989.88
2017-09-10T04:24:10.717Z,989.95
2017-09-10T04:25:10.732Z,989.95
2017-09-10T04:26:10.753Z,989.99
2017-09-10T04:27:10.774Z,990.00
2017-09-10T04:28:10.799Z,990.01
2017-09-10T04:29:10.832Z,990.01
2017-09-10T04:30:10.836Z,990.03
2017-09-10T04:31:10.861Z,989.98
2017-09-10T04:32:10.878Z,990.01
2017-09-10T04:33:10.898Z,989.98
2017-09-10T04:34:10.921Z,990.01
2017-09-10T04:35:10.941Z,989.98
2017-09-10T04:36:10.960Z,990.01
2017-09-10T04:37:10.982Z,990.03
2017-09-10T04:38:11.002Z,989.97
2017-09-10T04:39:11.023Z,989.98
2017-09-10T04:40:11.064Z,989.98
2017-09-10T04:41:11.076Z,990.00
2017-09-10T04:42:11.085Z,990.02
2017-09-10T04:43:11.110Z,990.01
2017-09-10T04:44:11.142Z,989.99
2017-09-10T04:45:11.167Z,990.00
2017-09-10T04:46:11.169Z,990.01
2017-09-10T04:47:11.190Z,989.99
2017-09-10T04:48:11.210Z,990.03
2017-09-10T04:49:11.232Z,990.05
2017-09-10T04:50:11.268Z,990.06
2017-09-10T04:51:11.273Z,990.02
2017-09-10T04:52:11.304Z,990.03
2017-09-10T04:53:11.313Z,990.05
2017-09-10T04:54:11.334Z,990.02
2017-09-10T04:55:11.356Z,990.05
2017-09-10T04:56:11.377Z,989.98
2017-09-10T04:57:11.398Z,990.01
2017-09-10T04:58:11.422Z,990.01
2017-09-10T04:59:11.450Z,990.04
2017-09-10T05:00:11.458Z,990.04
2017-09-10T05:01:11.486Z,990.08
2017-09-10T05:02:11.502Z,990.12
2017-09-10T05:03:11.523Z,990.10
2017-09-10T05:04:11.553Z,990.10
2017-09-10T05:05:11.566Z,990.15
2017-09-10T05:06:11.585Z,990.11
2017-09-10T05:07:11.617Z,990.12
2017-09-10T05:08:11.627Z,990.07
2017-09-10T05:09:11.649Z,990.08
2017-09-10T05:10:11.712Z,990.07
2017-09-10T05:11:11.688Z,990.05
2017-09-10T05:12:11.715Z,990.06
2017-09-10T05:13:11.732Z,990.07
2017-09-10T05:14:11.757Z,990.07
2017-09-10T05:15:11.773Z,990.10
2017-09-10T05:16:11.802Z,990.12
2017-09-10T05:17:11.815Z,990.10
2017-09-10T05:18:11.836Z,990.12
2017-09-10T05:19:11.881Z,990.08
2017-09-10T05:20:11.881Z,990.14
2017-09-10T05:21:11.899Z,990.12
2017-09-10T05:22:11.920Z,990.17
2017-09-10T05:23:11.950Z,990.16
2017-09-10T05:24:11.964Z,990.14
2017-09-10T05:25:11.984Z,990.20
2017-09-10T05:26:12.004Z,990.19
2017-09-10T05:27:12.023Z,990.17
2017-09-10T05:28:12.048Z,990.22
2017-09-10T05:29:12.072Z,990.22
2017-09-10T05:30:12.093Z,990.20
2017-09-10T05:31:12.108Z,990.26
2017-09-10T05:32:12.133Z,990.27
2017-09-10T05:33:12.159Z,990.28
2017-09-10T05:34:12.170Z,990.31
2017-09-10T05:35:12.192Z,990.32
2017-09-10T05:36:12.216Z,990.35
2017-09-10T05:37:12.266Z,990.34
2017-09-10T05:38:12.261Z,990.37
2017-09-10T05:39:12.323Z,990.38
2017-09-10T05:40:12.299Z,990.42
2017-09-10T05:41:12.322Z,990.47
2017-09-10T05:42:12.343Z,990.49
2017-09-10T05:43:12.397Z,990.53
2017-09-10T05:44:12.384Z,990.56
2017-09-10T05:45:12.414Z,990.56
2017-09-10T05:46:12.421Z,990.58
2017-09-10T05:47:12.445Z,990.58
2017-09-10T05:48:12.464Z,990.59
2017-09-10T05:49:12.482Z,990.60
2017-09-10T05:50:12.510Z,990.57
2017-09-10T05:51:12.525Z,990.57
2017-09-10T05:52:12.549Z,990.58
2017-09-10T05:53:12.568Z,990.55
2017-09-10T05:54:12.588Z,990.54
2017-09-10T05:55:12.612Z,990.54
2017-09-10T05:56:12.630Z,990.55
2017-09-10T05:57:12.690Z,990.54
2017-09-10T05:58:12.672Z,990.54
2017-09-10T05:59:12.698Z,990.54
2017-09-10T06:00:12.716Z,990.57
2017-09-10T06:01:12.737Z,990.53
2017-09-10T06:02:12.761Z,990.54
2017-09-10T06:03:12.778Z,990.56
2017-09-10T06:04:12.800Z,990.57
2017-09-10T06:05:12.828Z,990.60
2017-09-10T06:06:12.851Z,990.58
2017-09-10T06:07:12.860Z,990.56
2017-09-10T06:08:12.887Z,990.58
2017-09-10T06:09:12.906Z,990.53
2017-09-10T06:10:12.928Z,990.54
2017-09-10T06:11:12.945Z,990.56
2017-09-10T06:12:12.967Z,990.58
2017-09-10T06:13:12.987Z,990.52
2017-09-10T06:14:13.019Z,990.54
2017-09-10T06:15:13.034Z,990.55
2017-09-10T06:16:13.050Z,990.59
2017-09-10T06:17:13.075Z,990.58
2017-09-10T06:18:13.096Z,990.56
2017-09-10T06:19:13.116Z,990.59
2017-09-10T06:20:13.138Z,990.56
2017-09-10T06:21:13.171Z,990.55
2017-09-10T06:22:13.177Z,990.55
2017-09-10T06:23:13.201Z,990.52
2017-09-10T06:24:13.223Z,990.55
2017-09-10T06:25:13.244Z,990.52
2017-09-10T06:26:13.267Z,990.53
2017-09-10T06:27:13.286Z,990.56
2017-09-10T06:28:13.310Z,990.54
2017-09-10T06:29:13.328Z,990.59
2017-09-10T06:30:13.352Z,990.63
2017-09-10T06:31:13.387Z,990.64
2017-09-10T06:32:13.398Z,990.64
2017-09-10T06:33:13.429Z,990.68
2017-09-10T06:34:13.441Z,990.69
2017-09-10T06:35:13.460Z,990.66
2017-09-10T06:36:13.485Z,990.68
2017-09-10T06:37:13.503Z,990.57
2017-09-10T06:38:13.522Z,990.58
2017-09-10T06:39:13.558Z,990.58
2017-09-10T06:40:13.568Z,990.56
2017-09-10T06:41:13.599Z,990.58
2017-09-10T06:42:13.634Z,990.57
2017-09-10T06:43:13.639Z,990.58
2017-09-10T06:44:13.655Z,990.69
2017-09-10T06:45:13.681Z,990.87
2017-09-10T06:46:13.702Z,990.80
2017-09-10T06:47:13.736Z,990.72
2017-09-10T06:48:13.752Z,990.75
2017-09-10T06:49:13.768Z,990.77
2017-09-10T06:50:13.799Z,990.72
2017-09-10T06:51:13.815Z,990.93
2017-09-10T06:52:13.836Z,990.67
2017-09-10T06:53:13.868Z,990.85
2017-09-10T06:54:13.885Z,990.64
2017-09-10T06:55:13.905Z,990.62
2017-09-10T06:56:13.931Z,990.63
2017-09-10T06:57:13.960Z,990.62
2017-09-10T06:58:13.974Z,990.58
2017-09-10T06:59:14.001Z,990.62
2017-09-10T07:00:14.030Z,990.63
2017-09-10T07:01:14.045Z,990.75
2017-09-10T07:02:14.064Z,990.75
2017-09-10T07:03:14.089Z,990.72
2017-09-10T07:04:14.111Z,990.78
2017-09-10T07:05:14.141Z,990.81
2017-09-10T07:06:14.156Z,990.83
2017-09-10T07:07:14.184Z,990.84
2017-09-10T07:10:13.266Z,990.91
2017-09-10T07:11:13.253Z,990.91
2017-09-10T07:13:06.247Z,990.95
2017-09-10T07:14:06.212Z,990.94
2017-09-10T07:16:00.149Z,990.95
2017-09-10T07:17:00.166Z,990.96
2017-09-10T07:18:53.145Z,991.00
2017-09-10T07:19:53.125Z,991.09
2017-09-10T07:21:46.069Z,991.33
2017-09-10T07:22:46.088Z,991.15
2017-09-10T07:24:39.075Z,991.01
2017-09-10T07:25:39.051Z,991.06
2017-09-10T07:27:32.991Z,991.34
2017-09-10T07:28:33.012Z,991.04
2017-09-10T07:30:25.988Z,991.20
2017-09-10T07:31:25.976Z,990.95
2017-09-10T07:33:18.957Z,991.10
2017-09-10T07:34:18.941Z,991.01
2017-09-10T07:36:11.881Z,990.99
2017-09-10T07:37:11.909Z,990.99
2017-09-10T07:39:04.886Z,991.46
2017-09-10T07:40:04.871Z,991.18
2017-09-10T07:41:57.814Z,991.49
2017-09-10T07:42:57.833Z,991.16
2017-09-10T07:44:50.805Z,991.48
2017-09-10T07:45:50.794Z,991.35
2017-09-10T07:47:43.742Z,991.48
2017-09-10T07:48:43.769Z,991.07
2017-09-10T07:50:36.740Z,991.40
2017-09-10T07:51:36.721Z,991.33
2017-09-10T07:53:29.662Z,990.91
2017-09-10T07:54:29.684Z,990.99
2017-09-10T07:56:22.668Z,991.25
2017-09-10T07:57:22.656Z,991.03
2017-09-10T07:59:15.605Z,990.97
2017-09-10T08:00:15.626Z,990.99
2017-09-10T08:02:08.606Z,991.01
2017-09-10T08:03:08.589Z,991.01
2017-09-10T08:05:01.573Z,991.05
2017-09-10T08:06:01.558Z,991.05
2017-09-10T08:07:54.501Z,991.03
2017-09-10T08:08:54.521Z,991.01
2017-09-10T08:10:47.512Z,991.03
2017-09-10T08:11:47.494Z,991.05
2017-09-10T08:13:40.421Z,991.07
2017-09-10T08:14:40.440Z,991.07
2017-09-10T08:16:33.417Z,991.09
2017-09-10T08:17:33.404Z,991.04
2017-09-10T08:19:26.345Z,991.13
2017-09-10T08:20:26.369Z,991.17
2017-09-10T08:22:19.346Z,991.17
2017-09-10T08:23:19.331Z,991.17
2017-09-10T08:25:12.288Z,991.20
2017-09-10T08:26:12.300Z,991.18
2017-09-10T08:28:05.278Z,991.22
2017-09-10T08:29:05.261Z,991.19
2017-09-10T08:30:58.199Z,991.19
2017-09-10T08:31:58.222Z,991.16
2017-09-10T08:33:51.203Z,991.08
2017-09-10T08:34:51.188Z,991.08
2017-09-10T08:36:44.164Z,991.07
2017-09-10T08:37:44.161Z,991.10
2017-09-10T08:39:37.092Z,991.07
2017-09-10T08:40:37.124Z,991.07
2017-09-10T08:42:30.090Z,991.09
2017-09-10T08:43:30.081Z,991.08
2017-09-10T08:45:23.024Z,991.04
2017-09-10T08:46:23.047Z,991.05
2017-09-10T08:48:16.016Z,991.06
2017-09-10T08:49:16.003Z,991.08
2017-09-10T08:51:08.965Z,991.07
2017-09-10T08:52:08.979Z,991.04
2017-09-10T08:54:01.964Z,991.02
2017-09-10T08:55:01.945Z,991.03
2017-09-10T08:56:54.886Z,991.02
2017-09-10T08:57:54.903Z,991.02
2017-09-10T08:59:47.887Z,990.96
2017-09-10T09:00:47.872Z,990.97
2017-09-10T09:02:40.825Z,990.95
2017-09-10T09:03:40.833Z,990.96
2017-09-10T09:05:33.823Z,990.99
2017-09-10T09:06:33.802Z,990.98
2017-09-10T09:08:26.762Z,991.00
2017-09-10T09:09:26.773Z,991.01
2017-09-10T09:11:19.764Z,991.05
2017-09-10T09:12:19.740Z,991.03
2017-09-10T09:14:12.718Z,990.97
2017-09-10T09:15:12.706Z,991.01
2017-09-10T09:17:05.652Z,990.94
2017-09-10T09:18:05.675Z,990.99
2017-09-10T09:19:58.650Z,990.99
2017-09-10T09:20:58.632Z,991.00
2017-09-10T09:22:51.574Z,991.05
2017-09-10T09:23:51.589Z,990.99
2017-09-10T09:25:44.575Z,991.03
2017-09-10T09:26:44.561Z,991.01
2017-09-10T09:28:37.499Z,990.99
2017-09-10T09:29:37.519Z,991.03
2017-09-10T09:31:30.493Z,991.03
2017-09-10T09:32:30.481Z,991.04
2017-09-10T09:34:23.429Z,991.06
2017-09-10T09:35:23.440Z,991.06
2017-09-10T09:37:16.426Z,991.05
2017-09-10T09:38:16.409Z,991.08
2017-09-10T09:40:09.381Z,991.12
2017-09-10T09:41:09.366Z,991.11
2017-09-10T09:43:02.313Z,991.13
2017-09-10T09:44:02.333Z,991.17
2017-09-10T09:45:55.306Z,991.11
2017-09-10T09:46:55.294Z,991.10
2017-09-10T09:48:48.233Z,991.06
2017-09-10T09:49:48.258Z,991.09
2017-09-10T09:51:41.236Z,991.10
2017-09-10T09:52:41.221Z,991.09
2017-09-10T09:54:34.163Z,991.02
2017-09-10T09:55:34.180Z,991.05
2017-09-10T09:57:27.170Z,991.02
2017-09-10T09:58:27.151Z,991.02
2017-09-10T10:00:20.099Z,990.99
2017-09-10T10:01:20.120Z,990.97
2017-09-10T10:03:13.114Z,990.98
2017-09-10T10:04:13.095Z,991.01
2017-09-10T10:06:06.096Z,990.99
2017-09-10T10:07:06.063Z,990.98
2017-09-10T10:08:59.013Z,990.96
2017-09-10T10:09:59.031Z,990.97
2017-09-10T10:11:52.014Z,990.90
2017-09-10T10:12:51.992Z,990.89
2017-09-10T10:14:44.938Z,990.91
2017-09-10T10:15:44.958Z,990.94
2017-09-10T10:17:38.932Z,990.91
2017-09-10T10:18:38.912Z,990.88
2017-09-10T10:20:31.866Z,990.87
2017-09-10T10:21:31.882Z,990.87
2017-09-10T10:23:24.867Z,990.86
2017-09-10T10:24:24.851Z,990.84
2017-09-10T10:26:17.798Z,990.80
2017-09-10T10:27:17.815Z,990.82
2017-09-10T10:29:10.790Z,990.80
2017-09-10T10:30:10.777Z,990.82
2017-09-10T10:32:03.728Z,990.83
2017-09-10T10:33:03.750Z,990.80
2017-09-10T10:34:56.731Z,990.72
2017-09-10T10:35:56.716Z,990.72
2017-09-10T10:37:49.664Z,990.73
2017-09-10T10:38:49.685Z,990.75
2017-09-10T10:40:42.664Z,990.73
2017-09-10T10:41:42.643Z,990.78
2017-09-10T10:43:35.626Z,990.78
2017-09-10T10:44:35.627Z,990.82
2017-09-10T10:46:28.553Z,990.82
2017-09-10T10:47:28.575Z,990.79
2017-09-10T10:49:21.574Z,990.79
2017-09-10T10:50:21.548Z,990.80
2017-09-10T10:52:14.495Z,990.79
2017-09-10T10:53:14.513Z,990.80
2017-09-10T10:55:08.008Z,990.82
2017-09-10T10:56:07.975Z,990.88
2017-09-10T10:58:01.423Z,990.88
2017-09-10T10:59:01.438Z,990.82
2017-09-10T11:00:54.424Z,990.88
2017-09-10T11:01:54.405Z,990.87
2017-09-10T11:03:47.352Z,990.81
2017-09-10T11:04:47.371Z,990.81
2017-09-10T11:06:40.350Z,990.81
2017-09-10T11:07:40.329Z,990.82
2017-09-10T11:09:33.283Z,990.82
2017-09-10T11:10:33.303Z,990.81
2017-09-10T11:12:26.275Z,990.78
2017-09-10T11:13:26.260Z,990.74
2017-09-10T11:15:19.214Z,990.75
2017-09-10T11:16:19.232Z,990.73
2017-09-10T11:18:12.224Z,990.75
2017-09-10T11:19:12.213Z,990.67
2017-09-10T11:21:05.678Z,990.72
2017-09-10T11:22:05.667Z,990.70
2017-09-10T11:23:58.619Z,990.70
2017-09-10T11:24:58.638Z,990.71
2017-09-10T11:26:51.621Z,990.63
2017-09-10T11:27:51.599Z,990.64
2017-09-10T11:29:44.544Z,990.65
2017-09-10T11:30:44.565Z,990.63
2017-09-10T11:32:37.551Z,990.69
2017-09-10T11:33:37.530Z,990.68
2017-09-10T11:35:30.482Z,990.68
2017-09-10T11:36:30.489Z,990.68
2017-09-10T11:38:23.471Z,990.67
2017-09-10T11:39:23.455Z,990.65
2017-09-10T11:41:16.406Z,990.62
2017-09-10T11:42:16.426Z,990.68
2017-09-10T11:44:09.402Z,990.69
2017-09-10T11:45:09.381Z,990.68
2017-09-10T11:47:02.330Z,990.64
2017-09-10T11:48:02.349Z,990.67
2017-09-10T11:49:55.350Z,990.65
2017-09-10T11:50:55.320Z,990.59
2017-09-10T11:52:48.317Z,990.60
2017-09-10T11:53:48.282Z,990.55
2017-09-10T11:55:41.247Z,990.57
2017-09-10T11:56:41.248Z,990.58
2017-09-10T11:58:34.223Z,990.58
2017-09-10T11:59:34.219Z,990.57
2017-09-10T12:01:27.201Z,990.50
2017-09-10T12:02:27.183Z,990.50
2017-09-10T12:04:20.183Z,990.51
2017-09-10T12:05:20.153Z,990.54
2017-09-10T12:07:13.098Z,990.50
2017-09-10T12:08:13.127Z,990.52
2017-09-10T12:10:06.098Z,990.55
2017-09-10T12:11:06.081Z,990.53
2017-09-10T12:12:59.022Z,990.54
2017-09-10T12:13:59.043Z,990.54
2017-09-10T12:15:52.021Z,990.55
2017-09-10T12:16:52.009Z,990.55
2017-09-10T12:18:44.945Z,990.59
2017-09-10T12:19:44.967Z,990.55
2017-09-10T12:21:37.948Z,990.58
2017-09-10T12:22:37.934Z,990.55
2017-09-10T12:24:30.909Z,990.53
2017-09-10T12:25:30.897Z,990.49
2017-09-10T12:27:23.839Z,990.50
2017-09-10T12:28:23.859Z,990.52
2017-09-10T12:30:16.831Z,990.45
2017-09-10T12:31:16.817Z,990.48
2017-09-10T12:33:09.766Z,990.51
2017-09-10T12:34:09.783Z,990.51
2017-09-10T12:36:02.769Z,990.55
2017-09-10T12:37:02.765Z,990.50
2017-09-10T12:38:55.697Z,990.53
2017-09-10T12:39:55.724Z,990.51
2017-09-10T12:41:48.698Z,990.46
2017-09-10T12:42:48.688Z,990.45
2017-09-10T12:44:41.627Z,990.44
2017-09-10T12:45:41.649Z,990.41
2017-09-10T12:47:34.634Z,990.43
2017-09-10T12:48:34.616Z,990.44
2017-09-10T12:50:27.563Z,990.43
2017-09-10T12:51:27.583Z,990.40
2017-09-10T12:53:20.559Z,990.38
2017-09-10T12:54:20.543Z,990.37
2017-09-10T12:56:13.531Z,990.37
2017-09-10T12:57:13.525Z,990.34
2017-09-10T12:59:06.455Z,990.37
2017-09-10T13:00:06.475Z,990.39
2017-09-10T13:01:59.455Z,990.33
2017-09-10T13:02:59.435Z,990.30
2017-09-10T13:04:52.404Z,990.31
2017-09-10T13:05:52.414Z,990.29
2017-09-10T13:07:45.394Z,990.33
2017-09-10T13:08:45.377Z,990.31
2017-09-10T13:10:38.324Z,990.31
2017-09-10T13:11:38.344Z,990.28
2017-09-10T13:13:31.333Z,990.26
2017-09-10T13:14:31.315Z,990.25
2017-09-10T13:16:24.258Z,990.29
2017-09-10T13:17:24.269Z,990.25
2017-09-10T13:19:17.260Z,990.24
2017-09-10T13:20:17.242Z,990.23
2017-09-10T13:22:11.172Z,990.17
2017-09-10T13:23:11.197Z,990.15
2017-09-10T13:25:04.170Z,990.14
2017-09-10T13:26:04.156Z,990.13
2017-09-10T13:27:57.098Z,990.08
2017-09-10T13:28:57.122Z,990.11
2017-09-10T13:30:50.104Z,990.09
2017-09-10T13:31:50.085Z,990.10
2017-09-10T13:33:43.083Z,990.10
2017-09-10T13:34:43.073Z,990.07
2017-09-10T13:36:36.002Z,990.06
2017-09-10T13:37:36.021Z,990.08
2017-09-10T13:39:29.002Z,990.00
2017-09-10T13:40:28.985Z,989.98
2017-09-10T13:42:21.929Z,989.96
2017-09-10T13:43:21.953Z,989.97
2017-09-10T13:45:14.930Z,989.92
2017-09-10T13:46:14.911Z,989.88
2017-09-10T13:48:07.858Z,989.91
2017-09-10T13:49:07.871Z,989.91
2017-09-10T13:51:00.849Z,989.89
2017-09-10T13:52:00.837Z,989.87
2017-09-10T13:53:53.782Z,989.92
2017-09-10T13:54:53.800Z,989.92
2017-09-10T13:56:46.783Z,989.96
2017-09-10T13:57:46.764Z,989.95
2017-09-10T13:59:40.705Z,989.85
2017-09-10T14:00:40.731Z,989.90
2017-09-10T14:02:33.712Z,989.83
2017-09-10T14:03:33.696Z,989.83
2017-09-10T14:05:27.663Z,989.82
2017-09-10T14:06:27.651Z,989.84
2017-09-10T14:08:20.603Z,989.83
2017-09-10T14:09:20.620Z,989.79
2017-09-10T14:11:13.605Z,989.81
2017-09-10T14:12:13.586Z,989.79
2017-09-10T14:14:06.543Z,989.77
2017-09-10T14:15:06.562Z,989.75
2017-09-10T14:16:59.536Z,989.67
2017-09-10T14:17:59.525Z,989.68
2017-09-10T14:19:52.462Z,989.64
2017-09-10T14:20:52.486Z,989.64
2017-09-10T14:22:45.455Z,989.76
2017-09-10T14:23:45.446Z,989.76
2017-09-10T14:25:38.928Z,989.83
2017-09-10T14:26:38.900Z,989.79
2017-09-10T14:28:31.861Z,989.80
2017-09-10T14:29:31.878Z,989.78
2017-09-10T14:31:24.849Z,989.77
2017-09-10T14:32:24.838Z,989.84
2017-09-10T14:34:18.280Z,989.88
2017-09-10T14:35:18.295Z,989.85
2017-09-10T14:37:11.285Z,989.85
2017-09-10T14:38:11.256Z,989.89
2017-09-10T14:40:04.202Z,989.83
2017-09-10T14:41:04.219Z,989.84
2017-09-10T14:42:57.221Z,989.89
2017-09-10T14:43:57.185Z,989.87
2017-09-10T14:45:50.161Z,989.90
2017-09-10T14:46:50.154Z,989.92
2017-09-10T14:48:43.101Z,989.91
2017-09-10T14:49:43.111Z,989.89
2017-09-10T14:51:36.088Z,989.90